Latest Weather Observations for New May Downs

IDQ60801

Issued at 4:32 pm EST Thursday 19 January 2017 (issued every 30 minutes, with the page automatically refreshed every 10 minutes)

About weather observations | Map of weather stations | Latest weather observations for QLD | Other Formats
Station Details ID: 037059 Name: NEW MAY DOWNS Lat: -20.59 Lon: 139.34 Height: 392.0 m
Data from the previous 72 hours. | See also: Recent months at New May Downs
Date/Time
EST
Temp
°C
App
Temp
°C
Dew
Point
°C
Rel
Hum
%
Delta-T
°C
Wind Press
QNH
hPa
Press
MSL
hPa
Rain since
9am
mm
Dir  Spd
km/h
Gust
km/h
Spd
kts
Gust
kts
19/04:30pm 36.7 38.3 19.2 36 11.8 NW 9 17 5 9 - - 0.0
19/04:00pm 35.9 37.8 18.9 36 11.4 N 7 13 4 7 - - 0.0
19/03:30pm 36.1 37.7 19.1 36 11.4 N 9 15 5 8 - - 0.0
19/03:00pm 35.6 37.6 19.1 38 11.0 NW 7 11 4 6 - - 0.0
19/02:30pm 34.6 36.3 19.4 40 10.2 NNW 9 15 5 8 - - 0.0
19/02:00pm 35.3 37.1 19.6 39 10.6 NNW 9 19 5 10 - - 0.0
19/01:30pm 35.0 37.4 20.9 43 9.6 NNW 9 15 5 8 - - 0.0
19/01:00pm 33.3 36.1 19.7 44 9.1 NNE 4 7 2 4 - - 0.0
19/12:30pm 33.6 36.2 20.4 46 8.9 NNW 7 13 4 7 - - 0.0
19/12:00pm 33.8 37.0 20.6 46 9.0 WNW 4 13 2 7 - - 0.0
19/11:30am 32.6 34.8 20.5 49 8.2 WNW 9 17 5 9 - - 0.0
19/11:00am 31.8 33.6 20.4 51 7.7 NW 11 19 6 10 - - 0.0
19/10:30am 30.8 32.4 20.7 55 6.8 W 13 20 7 11 - - 0.0
19/10:00am 30.5 32.8 21.3 58 6.3 WNW 11 19 6 10 - - 0.0
19/09:30am 29.6 31.9 21.3 61 5.6 W 11 19 6 10 - - 0.0
19/09:00am 28.7 29.5 20.7 62 5.4 W 17 20 9 11 - - 0.0
19/08:30am 28.1 29.1 21.1 65 4.7 W 17 24 9 13 - - 0.0
19/08:00am 27.1 28.7 21.4 71 3.8 W 15 22 8 12 - - 0.0
19/07:30am 26.4 28.8 22.3 78 2.8 WNW 13 19 7 10 - - 0.0
19/07:00am 25.9 29.7 22.8 83 2.1 NW 7 15 4 8 - - 0.0
19/06:30am 25.3 30.4 22.6 85 1.8 CALM 0 0 0 0 - - 0.0
19/06:00am 25.2 30.3 22.7 86 1.7 CALM 0 0 0 0 - - 0.0
19/05:30am 24.9 29.7 22.2 85 1.8 CALM 0 0 0 0 - - 0.0
19/05:00am 25.6 30.7 22.7 84 2.0 CALM 0 0 0 0 - - 0.0
19/04:30am 25.8 30.8 22.5 82 2.3 CALM 0 0 0 0 - - 0.0
19/04:00am 26.0 30.2 22.5 81 2.4 NNW 4 6 2 3 - - 0.0
19/03:30am 26.2 30.4 22.5 80 2.5 NNW 4 6 2 3 - - 0.0
19/03:00am 26.5 30.6 22.3 78 2.9 NW 4 6 2 3 - - 0.0
19/02:30am 26.8 30.6 22.4 77 3.0 NNW 6 9 3 5 - - 0.0
19/02:00am 27.1 30.7 22.3 75 3.3 NW 7 15 4 8 - - 0.0
19/01:30am 27.6 29.9 22.1 72 3.8 NNW 13 17 7 9 - - 0.0
19/01:00am 28.1 30.3 21.9 69 4.2 NNW 13 20 7 11 - - 0.0
19/12:30am 28.6 31.0 21.6 66 4.8 NNW 11 17 6 9 - - 0.0
19/12:00am 29.0 32.4 22.0 66 4.8 N 7 15 4 8 - - 0.0
 
Date/Time
EST
Temp
°C
App
Temp
°C
Dew
Point
°C
Rel
Hum
%
Delta-T
°C
Wind Press
QNH
hPa
Press
MSL
hPa
Rain since
9am
mm
Dir  Spd
km/h
Gust
km/h
Spd
kts
Gust
kts
18/11:30pm 29.2 32.7 21.9 64 5.0 N 6 9 3 5 - - 0.0
18/11:00pm 29.4 33.0 22.1 65 5.0 N 6 7 3 4 - - 0.0
18/10:30pm 29.2 33.4 22.4 66 4.7 NNE 4 6 2 3 - - 0.0
18/10:00pm 29.3 33.4 22.3 66 4.8 N 4 6 2 3 - - 0.0
18/09:30pm 29.6 33.5 21.8 63 5.3 N 4 6 2 3 - - 0.0
18/09:00pm 30.3 33.4 21.4 59 6.1 NW 7 9 4 5 - - 0.0
18/08:30pm 30.4 33.0 21.2 58 6.2 WNW 9 11 5 6 - - 0.0
18/08:00pm 30.9 33.4 21.1 56 6.7 WNW 9 13 5 7 - - 0.0
18/07:30pm 32.3 34.8 20.2 48 8.1 N 7 9 4 5 - - 0.0
18/07:00pm 32.8 35.2 20.0 47 8.6 N 7 13 4 7 - - 0.0
18/06:30pm 33.3 35.5 19.7 44 9.1 NNE 7 9 4 5 - - 0.0
18/06:00pm 32.9 34.8 19.7 45 8.8 NNE 9 13 5 7 - - 0.0
18/05:30pm 33.5 35.5 19.2 43 9.5 NE 7 13 4 7 - - 0.0
18/05:00pm 34.4 35.8 19.6 41 9.9 NE 11 17 6 9 - - 0.0
18/04:30pm 33.9 35.6 18.4 40 10.2 NNW 7 15 4 8 - - 0.0
18/04:00pm 35.0 36.7 19.4 40 10.5 NNW 9 19 5 10 - - 0.0
18/03:30pm 34.7 36.1 18.7 38 10.6 WNW 9 20 5 11 - - 0.0
18/03:00pm 34.2 36.2 19.1 41 10.1 NW 7 17 4 9 - - 0.0
18/02:30pm 33.9 35.7 19.6 43 9.6 NW 9 17 5 9 - - 0.0
18/02:00pm 33.6 34.3 18.9 41 9.8 NW 13 22 7 12 - - 0.0
18/01:30pm 33.3 34.4 19.7 44 9.1 NW 13 20 7 11 - - 0.0
18/01:00pm 33.6 34.5 18.5 40 10.0 N 11 20 6 11 - - 0.0
18/12:30pm 32.7 33.2 19.2 44 9.0 N 15 22 8 12 - - 0.0
18/12:00pm 32.1 32.9 19.0 45 8.7 NNW 13 20 7 11 - - 0.0
18/11:30am 31.9 32.3 18.1 43 9.0 N 13 28 7 15 - - 0.0
18/11:00am 31.9 31.7 18.5 45 8.8 N 17 26 9 14 - - 0.0
18/10:30am 31.0 31.0 18.0 45 8.5 N 15 26 8 14 - - 0.0
18/10:00am 30.3 30.4 18.4 49 7.8 NNW 15 24 8 13 - - 0.0
18/09:30am 29.5 30.5 18.6 52 7.1 N 11 19 6 10 - - 0.0
18/09:00am 28.3 29.9 19.2 57 6.0 N 9 17 5 9 - - 0.2
18/08:30am 26.9 28.3 19.5 64 4.9 N 11 17 6 9 - - 0.2
18/08:00am 26.1 27.6 19.7 68 4.2 N 11 17 6 9 - - 0.2
18/07:30am 25.2 27.3 20.2 74 3.3 N 9 15 5 8 - - 0.2
18/07:00am 24.1 27.0 20.6 81 2.3 N 6 9 3 5 - - 0.2
18/06:30am 23.4 26.4 20.9 86 1.7 N 6 9 3 5 - - 0.2
18/06:00am 23.2 26.2 20.9 87 1.5 N 6 9 3 5 - - 0.2
18/05:30am 23.2 26.0 20.9 87 1.5 N 7 11 4 6 - - 0.2
18/05:00am 23.3 26.3 20.8 86 1.7 N 6 7 3 4 - - 0.2
18/04:30am 22.9 25.9 20.8 88 1.4 N 6 7 3 4 - - 0.2
18/04:00am 23.3 26.4 21.0 87 1.5 N 6 9 3 5 - - 0.2
18/03:30am 23.5 26.4 21.0 86 1.7 N 7 11 4 6 - - 0.2
18/03:00am 23.6 26.5 21.1 86 1.7 N 7 11 4 6 - - 0.2
18/02:30am 23.4 26.5 21.5 89 1.3 N 7 11 4 6 - - 0.2
18/02:00am 23.4 26.4 21.3 88 1.4 NNE 7 11 4 6 - - 0.2
18/01:30am 23.8 27.0 21.7 88 1.4 N 7 13 4 7 - - 0.2
18/01:00am 23.8 26.8 21.9 89 1.3 N 9 13 5 7 - - 0.2
18/12:30am 23.8 26.9 22.1 90 1.1 N 9 13 5 7 - - 0.2
18/12:00am 23.8 27.3 22.1 90 1.1 N 7 9 4 5 - - 0.2
 
Date/Time
EST
Temp
°C
App
Temp
°C
Dew
Point
°C
Rel
Hum
%
Delta-T
°C
Wind Press
QNH
hPa
Press
MSL
hPa
Rain since
9am
mm
Dir  Spd
km/h
Gust
km/h
Spd
kts
Gust
kts
17/11:30pm 23.8 27.5 22.2 91 1.1 N 6 9 3 5 - - 0.2
17/11:00pm 23.8 27.4 22.1 90 1.1 NE 6 9 3 5 - - 0.2
17/10:30pm 24.0 27.5 22.1 89 1.3 NE 7 13 4 7 - - 0.2
17/10:00pm 24.1 27.6 22.2 89 1.3 NE 7 11 4 6 - - 0.2
17/09:30pm 24.1 27.7 22.4 90 1.2 NE 7 9 4 5 - - 0.2
17/09:00pm 24.3 28.2 22.6 90 1.2 NE 6 7 3 4 - - 0.2
17/08:30pm 24.5 28.5 22.8 90 1.2 NE 6 9 3 5 - - 0.2
17/08:00pm 24.7 27.7 22.6 88 1.4 NE 11 15 6 8 - - 0.0
17/07:30pm 25.7 28.2 21.8 79 2.6 NNE 11 17 6 9 - - 0.0
17/07:00pm 26.1 28.0 21.3 75 3.2 NNE 13 19 7 10 - - 0.0
17/06:30pm 26.7 28.9 21.9 75 3.3 N 13 22 7 12 - - 0.0
17/06:00pm 26.4 28.5 22.5 79 2.7 NNW 15 24 8 13 - - 0.0
17/05:30pm 26.9 28.1 22.5 77 3.0 NNW 20 30 11 16 - - 0.0
17/05:00pm 26.6 27.1 22.7 79 2.7 NNW 24 35 13 19 - - 0.0
17/04:30pm 25.6 26.2 22.1 81 2.4 NNW 22 39 12 21 - - 0.0
17/04:00pm 29.6 29.5 20.7 58 6.0 NNE 22 44 12 24 - - 0.0
17/03:30pm 32.8 33.7 20.0 47 8.6 NNE 15 24 8 13 - - 0.0
17/03:00pm 32.4 33.8 20.3 48 8.2 NE 13 24 7 13 - - 0.0
17/02:30pm 32.3 34.5 21.2 52 7.6 NE 11 19 6 10 - - 0.0
17/02:00pm 29.9 31.0 20.5 57 6.3 N 15 20 8 11 - - 0.0
17/01:30pm 31.6 32.0 19.9 50 7.8 N 17 28 9 15 - - 0.0
17/01:00pm 31.7 31.6 20.0 50 7.8 NNE 20 33 11 18 - - 0.0
17/12:30pm 30.7 30.3 20.9 56 6.6 NNE 24 35 13 19 - - 0.0
17/12:00pm 31.1 31.5 21.0 55 6.8 NNE 20 32 11 17 - - 0.0
17/11:30am 29.9 29.3 20.5 57 6.3 NE 24 35 13 19 - - 0.0
17/11:00am 29.1 30.0 20.8 61 5.6 NNE 17 30 9 16 - - 0.0
17/10:30am 27.8 28.3 20.9 66 4.6 N 19 28 10 15 - - 0.0
17/10:00am 26.7 26.6 20.8 70 3.9 NE 22 33 12 18 - - 0.0
17/09:30am 27.3 27.6 20.4 66 4.6 NNE 19 28 10 15 - - 0.0
17/09:00am 26.2 26.6 21.0 73 3.5 NNE 20 35 11 19 - - 0.0
17/08:30am 25.7 27.1 21.1 76 3.1 NNE 15 30 8 16 - - 0.0
17/08:00am 25.7 26.2 20.9 75 3.2 NNE 19 28 10 15 - - 0.0
17/07:30am 25.7 26.6 20.9 75 3.2 NE 17 28 9 15 - - 0.0
17/07:00am 25.0 26.4 21.1 79 2.6 NNE 15 24 8 13 - - 0.0
17/06:30am 24.3 26.1 21.8 86 1.7 NNE 15 26 8 14 - - 0.0
17/06:00am 24.4 26.2 21.9 86 1.7 NE 15 22 8 12 - - 0.0
17/05:30am 24.5 26.5 21.6 84 1.9 NE 13 20 7 11 - - 0.0
17/05:00am 24.5 25.8 21.6 84 1.9 NE 17 24 9 13 - - 0.0
17/04:30am 24.4 27.0 21.9 86 1.7 NE 11 13 6 7 - - 0.0
17/04:00am 24.3 26.1 21.8 86 1.7 NE 15 22 8 12 - - 0.0
17/03:30am 24.4 27.3 21.7 85 1.8 NE 9 17 5 9 - - 0.0
17/03:00am 24.3 26.6 21.4 84 1.9 NNE 11 17 6 9 - - 0.0
17/02:30am 24.4 25.9 21.3 83 2.1 NNE 15 24 8 13 - - 0.0
17/02:00am 24.4 25.9 21.3 83 2.1 NNE 15 26 8 14 - - 0.0
17/01:30am 24.3 26.0 21.0 82 2.2 NNE 13 19 7 10 - - 0.0
17/01:00am 24.6 26.5 21.3 82 2.2 NNE 13 20 7 11 - - 0.0
17/12:30am 24.9 26.6 21.6 82 2.2 NE 15 24 8 13 - - 0.0
17/12:00am 25.2 26.6 21.9 82 2.2 NE 17 22 9 12 - - 0.0
 
Date/Time
EST
Temp
°C
App
Temp
°C
Dew
Point
°C
Rel
Hum
%
Delta-T
°C
Wind Press
QNH
hPa
Press
MSL
hPa
Rain since
9am
mm
Dir  Spd
km/h
Gust
km/h
Spd
kts
Gust
kts
16/11:30pm 25.4 27.3 22.1 82 2.2 NNE 15 22 8 12 - - 0.0
16/11:00pm 25.5 27.9 22.2 82 2.2 NNE 13 22 7 12 - - 0.0
16/10:30pm 25.5 27.4 22.0 81 2.4 NE 15 22 8 12 - - 0.0
16/10:00pm 25.5 27.5 21.6 79 2.6 NE 13 20 7 11 - - 0.0
16/09:30pm 25.4 28.1 21.3 78 2.8 NE 9 15 5 8 - - 0.0
16/09:00pm 25.9 27.4 21.3 76 3.1 NE 15 20 8 11 - - 0.0
16/08:30pm 26.4 26.9 20.9 72 3.7 NE 19 28 10 15 - - 0.0
16/08:00pm 26.5 29.0 21.7 75 3.2 NE 11 15 6 8 - - 0.0
16/07:30pm 27.1 28.9 21.8 73 3.6 NE 15 24 8 13 - - 0.0
16/07:00pm 27.5 28.7 22.2 73 3.6 NNE 19 28 10 15 - - 0.0
16/06:30pm 27.5 27.9 21.8 71 3.9 N 22 35 12 19 - - 0.0
16/06:17pm 29.2 29.2 20.9 61 5.6 NNE 22 41 12 22 - - 0.0
16/06:00pm 30.8 32.5 20.1 53 7.2 NE 11 19 6 10 - - 0.0
16/05:30pm 29.8 31.9 20.9 59 6.0 ENE 11 19 6 10 - - 0.0
16/05:00pm 32.5 33.6 20.4 49 8.2 ENE 15 24 8 13 - - 0.0

Other Formats:

Comma delimited format used in spreadsheet applications
http://www.bom.gov.au/fwo/IDQ60801/IDQ60801.94349.axf

JavaScript Object Notation format (JSON) in row-major order
http://www.bom.gov.au/fwo/IDQ60801/IDQ60801.94349.json